Terminal Aerodrome Forecast
Issued by NWS Cleveland, OH

Home | Current Version | Previous Version | Text Only | Print | Product List | Glossary On
Versions: 1 2 3 4 5 6 7 8 9 10 11 12 13 14 15 16
615
FTUS41 KCLE 190534
TAFMFD
TAF
KMFD 190534Z 1906/2006 23014KT P6SM SKC WS020/25040KT
     FM191200 22009KT P6SM FEW250 WS020/26040KT
     FM191400 22010KT P6SM FEW250
     FM192300 21012KT P6SM FEW250 WS020/24040KT=

USA.gov is the U.S. government's official web portal to all federal, state and local government web resources and services.